sensor_id;sensor_type;location;lat;lon;timestamp;P1;durP1;ratioP1;P2;durP2;ratioP2
40339;SDS011;26044;50.864;20.658;2024-03-23T00:51:16;48.90;;;23.15;;
40339;SDS011;26044;50.864;20.658;2024-03-23T00:56:09;47.25;;;21.05;;
40339;SDS011;26044;50.864;20.658;2024-03-23T00:58:36;45.70;;;20.35;;
40339;SDS011;26044;50.864;20.658;2024-03-23T01:01:02;44.83;;;20.45;;
40339;SDS011;26044;50.864;20.658;2024-03-23T01:03:29;42.45;;;21.42;;
40339;SDS011;26044;50.864;20.658;2024-03-23T01:05:59;48.22;;;21.00;;
40339;SDS011;26044;50.864;20.658;2024-03-23T01:08:27;40.50;;;20.02;;
40339;SDS011;26044;50.864;20.658;2024-03-23T01:10:54;42.15;;;21.27;;
40339;SDS011;26044;50.864;20.658;2024-03-23T01:13:20;44.55;;;22.27;;
40339;SDS011;26044;50.864;20.658;2024-03-23T01:15:51;43.67;;;22.10;;
40339;SDS011;26044;50.864;20.658;2024-03-23T01:18:17;52.50;;;28.10;;
40339;SDS011;26044;50.864;20.658;2024-03-23T01:20:44;51.08;;;25.95;;
40339;SDS011;26044;50.864;20.658;2024-03-23T01:23:11;43.90;;;22.38;;
40339;SDS011;26044;50.864;20.658;2024-03-23T01:25:38;48.47;;;24.67;;
40339;SDS011;26044;50.864;20.658;2024-03-23T01:28:05;49.20;;;23.75;;
40339;SDS011;26044;50.864;20.658;2024-03-23T01:30:36;49.85;;;24.60;;
40339;SDS011;26044;50.864;20.658;2024-03-23T01:35:28;46.50;;;21.67;;
40339;SDS011;26044;50.864;20.658;2024-03-23T01:37:55;49.00;;;22.30;;
40339;SDS011;26044;50.864;20.658;2024-03-23T01:40:22;45.25;;;20.67;;
40339;SDS011;26044;50.864;20.658;2024-03-23T01:42:55;45.80;;;20.90;;
40339;SDS011;26044;50.864;20.658;2024-03-23T01:45:21;39.83;;;20.55;;
40339;SDS011;26044;50.864;20.658;2024-03-23T01:47:50;43.50;;;20.98;;
40339;SDS011;26044;50.864;20.658;2024-03-23T01:50:16;42.15;;;20.67;;
40339;SDS011;26044;50.864;20.658;2024-03-23T01:52:43;47.45;;;20.60;;
40339;SDS011;26044;50.864;20.658;2024-03-23T01:55:09;52.72;;;24.23;;
40339;SDS011;26044;50.864;20.658;2024-03-23T01:57:36;46.45;;;21.85;;
40339;SDS011;26044;50.864;20.658;2024-03-23T02:00:06;47.60;;;22.42;;
40339;SDS011;26044;50.864;20.658;2024-03-23T02:02:41;51.40;;;23.88;;
40339;SDS011;26044;50.864;20.658;2024-03-23T02:05:09;45.92;;;21.73;;
40339;SDS011;26044;50.864;20.658;2024-03-23T02:07:36;50.00;;;23.45;;
40339;SDS011;26044;50.864;20.658;2024-03-23T02:10:03;47.55;;;23.10;;
40339;SDS011;26044;50.864;20.658;2024-03-23T02:12:29;40.83;;;20.98;;
40339;SDS011;26044;50.864;20.658;2024-03-23T02:14:55;40.13;;;19.30;;
40339;SDS011;26044;50.864;20.658;2024-03-23T02:17:22;39.97;;;18.13;;
40339;SDS011;26044;50.864;20.658;2024-03-23T02:19:48;41.03;;;18.52;;
40339;SDS011;26044;50.864;20.658;2024-03-23T02:22:16;36.88;;;18.73;;
40339;SDS011;26044;50.864;20.658;2024-03-23T02:24:42;40.45;;;18.08;;
40339;SDS011;26044;50.864;20.658;2024-03-23T02:27:09;40.30;;;19.27;;
40339;SDS011;26044;50.864;20.658;2024-03-23T02:29:36;40.47;;;17.98;;
40339;SDS011;26044;50.864;20.658;2024-03-23T02:32:02;37.05;;;18.25;;
40339;SDS011;26044;50.864;20.658;2024-03-23T02:34:28;39.38;;;18.38;;
40339;SDS011;26044;50.864;20.658;2024-03-23T02:36:54;42.08;;;18.70;;
40339;SDS011;26044;50.864;20.658;2024-03-23T02:39:24;42.42;;;18.98;;
40339;SDS011;26044;50.864;20.658;2024-03-23T02:41:50;42.03;;;18.95;;
40339;SDS011;26044;50.864;20.658;2024-03-23T02:44:17;39.10;;;17.95;;
40339;SDS011;26044;50.864;20.658;2024-03-23T02:46:43;42.63;;;19.90;;
40339;SDS011;26044;50.864;20.658;2024-03-23T02:49:09;41.22;;;20.77;;
40339;SDS011;26044;50.864;20.658;2024-03-23T02:51:35;44.90;;;21.73;;
40339;SDS011;26044;50.864;20.658;2024-03-23T02:54:03;48.13;;;22.00;;
40339;SDS011;26044;50.864;20.658;2024-03-23T02:56:29;47.78;;;23.35;;
40339;SDS011;26044;50.864;20.658;2024-03-23T02:59:00;46.83;;;22.65;;
40339;SDS011;26044;50.864;20.658;2024-03-23T03:01:31;43.75;;;21.52;;
40339;SDS011;26044;50.864;20.658;2024-03-23T03:03:57;45.35;;;22.45;;
40339;SDS011;26044;50.864;20.658;2024-03-23T03:06:24;44.35;;;22.55;;
40339;SDS011;26044;50.864;20.658;2024-03-23T03:08:50;48.28;;;21.60;;
40339;SDS011;26044;50.864;20.658;2024-03-23T03:11:16;45.33;;;21.95;;
40339;SDS011;26044;50.864;20.658;2024-03-23T03:13:44;48.40;;;22.83;;
40339;SDS011;26044;50.864;20.658;2024-03-23T03:16:11;46.47;;;23.27;;
40339;SDS011;26044;50.864;20.658;2024-03-23T03:18:38;49.25;;;23.23;;
40339;SDS011;26044;50.864;20.658;2024-03-23T03:21:06;54.17;;;24.40;;
40339;SDS011;26044;50.864;20.658;2024-03-23T03:23:36;50.20;;;25.27;;
40339;SDS011;26044;50.864;20.658;2024-03-23T03:26:03;51.10;;;25.08;;
40339;SDS011;26044;50.864;20.658;2024-03-23T03:28:30;53.53;;;25.42;;
40339;SDS011;26044;50.864;20.658;2024-03-23T03:30:59;54.55;;;26.50;;
40339;SDS011;26044;50.864;20.658;2024-03-23T03:33:27;51.33;;;24.10;;
40339;SDS011;26044;50.864;20.658;2024-03-23T03:35:54;54.03;;;26.60;;
40339;SDS011;26044;50.864;20.658;2024-03-23T03:38:21;57.88;;;27.90;;
40339;SDS011;26044;50.864;20.658;2024-03-23T03:40:47;52.45;;;27.02;;
40339;SDS011;26044;50.864;20.658;2024-03-23T03:43:14;54.97;;;25.55;;
40339;SDS011;26044;50.864;20.658;2024-03-23T03:45:40;52.97;;;25.75;;
40339;SDS011;26044;50.864;20.658;2024-03-23T03:48:06;56.97;;;26.65;;
40339;SDS011;26044;50.864;20.658;2024-03-23T03:50:33;54.63;;;24.35;;
40339;SDS011;26044;50.864;20.658;2024-03-23T03:52:59;50.90;;;23.25;;
40339;SDS011;26044;50.864;20.658;2024-03-23T03:55:25;49.58;;;22.80;;
40339;SDS011;26044;50.864;20.658;2024-03-23T03:57:52;51.25;;;23.73;;
40339;SDS011;26044;50.864;20.658;2024-03-23T04:00:19;48.65;;;23.30;;
40339;SDS011;26044;50.864;20.658;2024-03-23T04:02:45;50.53;;;23.95;;
40339;SDS011;26044;50.864;20.658;2024-03-23T04:05:13;49.40;;;23.55;;
40339;SDS011;26044;50.864;20.658;2024-03-23T04:07:39;51.20;;;24.52;;
40339;SDS011;26044;50.864;20.658;2024-03-23T04:10:06;50.58;;;24.85;;
40339;SDS011;26044;50.864;20.658;2024-03-23T04:12:33;49.63;;;22.90;;
40339;SDS011;26044;50.864;20.658;2024-03-23T04:15:00;51.17;;;22.35;;
40339;SDS011;26044;50.864;20.658;2024-03-23T04:17:28;48.95;;;22.38;;
40339;SDS011;26044;50.864;20.658;2024-03-23T04:19:59;48.10;;;23.88;;
40339;SDS011;26044;50.864;20.658;2024-03-23T04:22:26;47.65;;;22.58;;
40339;SDS011;26044;50.864;20.658;2024-03-23T04:24:53;49.47;;;23.85;;
40339;SDS011;26044;50.864;20.658;2024-03-23T04:27:20;50.17;;;22.67;;
40339;SDS011;26044;50.864;20.658;2024-03-23T04:29:50;50.42;;;24.52;;
40339;SDS011;26044;50.864;20.658;2024-03-23T04:32:16;49.63;;;23.42;;
40339;SDS011;26044;50.864;20.658;2024-03-23T04:34:43;53.95;;;25.27;;
40339;SDS011;26044;50.864;20.658;2024-03-23T04:37:09;53.20;;;25.10;;
40339;SDS011;26044;50.864;20.658;2024-03-23T04:39:38;51.67;;;25.45;;
40339;SDS011;26044;50.864;20.658;2024-03-23T04:42:04;52.88;;;24.98;;
40339;SDS011;26044;50.864;20.658;2024-03-23T04:44:31;50.55;;;23.92;;
40339;SDS011;26044;50.864;20.658;2024-03-23T04:46:57;53.03;;;25.63;;
40339;SDS011;26044;50.864;20.658;2024-03-23T04:49:24;54.80;;;26.40;;
40339;SDS011;26044;50.864;20.658;2024-03-23T04:51:50;60.72;;;26.42;;
40339;SDS011;26044;50.864;20.658;2024-03-23T04:54:16;60.50;;;26.58;;
40339;SDS011;26044;50.864;20.658;2024-03-23T04:56:43;54.88;;;25.08;;
40339;SDS011;26044;50.864;20.658;2024-03-23T04:59:09;60.88;;;26.48;;
40339;SDS011;26044;50.864;20.658;2024-03-23T05:01:36;53.88;;;26.40;;
40339;SDS011;26044;50.864;20.658;2024-03-23T05:04:08;56.13;;;25.45;;
40339;SDS011;26044;50.864;20.658;2024-03-23T05:06:37;57.15;;;26.85;;
40339;SDS011;26044;50.864;20.658;2024-03-23T05:09:04;58.83;;;27.15;;
40339;SDS011;26044;50.864;20.658;2024-03-23T05:11:40;54.92;;;26.92;;
40339;SDS011;26044;50.864;20.658;2024-03-23T05:14:07;63.50;;;27.67;;
40339;SDS011;26044;50.864;20.658;2024-03-23T05:16:33;61.05;;;26.83;;
40339;SDS011;26044;50.864;20.658;2024-03-23T05:19:00;63.90;;;28.73;;
40339;SDS011;26044;50.864;20.658;2024-03-23T05:21:27;59.67;;;29.60;;
40339;SDS011;26044;50.864;20.658;2024-03-23T05:23:57;65.15;;;30.40;;
40339;SDS011;26044;50.864;20.658;2024-03-23T05:26:23;64.38;;;29.92;;
40339;SDS011;26044;50.864;20.658;2024-03-23T05:28:55;57.83;;;27.40;;
40339;SDS011;26044;50.864;20.658;2024-03-23T05:31:38;55.58;;;27.50;;
40339;SDS011;26044;50.864;20.658;2024-03-23T05:34:07;55.90;;;27.75;;
40339;SDS011;26044;50.864;20.658;2024-03-23T05:36:34;57.15;;;26.95;;
40339;SDS011;26044;50.864;20.658;2024-03-23T05:39:03;57.03;;;26.30;;
40339;SDS011;26044;50.864;20.658;2024-03-23T05:41:38;58.50;;;28.48;;
40339;SDS011;26044;50.864;20.658;2024-03-23T05:44:06;60.83;;;29.30;;
40339;SDS011;26044;50.864;20.658;2024-03-23T05:46:36;60.60;;;28.48;;
40339;SDS011;26044;50.864;20.658;2024-03-23T05:49:02;63.95;;;32.35;;
40339;SDS011;26044;50.864;20.658;2024-03-23T05:51:28;69.38;;;34.05;;
40339;SDS011;26044;50.864;20.658;2024-03-23T05:53:55;70.38;;;36.05;;
40339;SDS011;26044;50.864;20.658;2024-03-23T05:56:21;72.55;;;35.03;;
40339;SDS011;26044;50.864;20.658;2024-03-23T05:58:47;69.97;;;33.67;;
40339;SDS011;26044;50.864;20.658;2024-03-23T06:01:14;70.45;;;33.80;;
40339;SDS011;26044;50.864;20.658;2024-03-23T06:03:40;73.47;;;36.00;;
40339;SDS011;26044;50.864;20.658;2024-03-23T06:06:09;68.47;;;32.35;;
40339;SDS011;26044;50.864;20.658;2024-03-23T06:08:37;69.57;;;33.72;;
40339;SDS011;26044;50.864;20.658;2024-03-23T06:11:04;74.90;;;35.47;;
40339;SDS011;26044;50.864;20.658;2024-03-23T06:13:33;64.82;;;32.92;;
40339;SDS011;26044;50.864;20.658;2024-03-23T06:16:01;69.78;;;31.95;;
40339;SDS011;26044;50.864;20.658;2024-03-23T06:18:30;65.30;;;31.40;;
40339;SDS011;26044;50.864;20.658;2024-03-23T06:20:57;71.72;;;31.52;;
40339;SDS011;26044;50.864;20.658;2024-03-23T06:23:23;68.68;;;32.75;;
40339;SDS011;26044;50.864;20.658;2024-03-23T06:25:49;65.70;;;32.17;;
40339;SDS011;26044;50.864;20.658;2024-03-23T06:28:22;63.78;;;30.63;;
40339;SDS011;26044;50.864;20.658;2024-03-23T06:30:48;70.57;;;31.83;;
40339;SDS011;26044;50.864;20.658;2024-03-23T06:33:15;64.55;;;31.42;;
40339;SDS011;26044;50.864;20.658;2024-03-23T06:35:41;68.28;;;34.10;;
40339;SDS011;26044;50.864;20.658;2024-03-23T06:38:07;66.05;;;30.10;;
40339;SDS011;26044;50.864;20.658;2024-03-23T06:40:36;66.72;;;30.10;;
40339;SDS011;26044;50.864;20.658;2024-03-23T06:43:02;64.60;;;29.58;;
40339;SDS011;26044;50.864;20.658;2024-03-23T06:45:30;71.57;;;31.90;;
40339;SDS011;26044;50.864;20.658;2024-03-23T06:47:57;68.93;;;31.15;;
40339;SDS011;26044;50.864;20.658;2024-03-23T06:50:24;71.07;;;32.55;;
40339;SDS011;26044;50.864;20.658;2024-03-23T06:52:51;69.03;;;33.17;;
40339;SDS011;26044;50.864;20.658;2024-03-23T06:55:17;66.63;;;31.45;;
40339;SDS011;26044;50.864;20.658;2024-03-23T06:57:45;65.38;;;31.00;;
40339;SDS011;26044;50.864;20.658;2024-03-23T07:00:14;65.18;;;30.48;;
40339;SDS011;26044;50.864;20.658;2024-03-23T07:02:41;57.22;;;27.67;;
40339;SDS011;26044;50.864;20.658;2024-03-23T07:05:09;59.60;;;27.92;;
40339;SDS011;26044;50.864;20.658;2024-03-23T07:07:37;57.20;;;26.50;;
40339;SDS011;26044;50.864;20.658;2024-03-23T07:10:04;56.50;;;25.25;;
40339;SDS011;26044;50.864;20.658;2024-03-23T07:12:31;55.53;;;25.45;;
40339;SDS011;26044;50.864;20.658;2024-03-23T07:14:58;56.00;;;26.08;;
40339;SDS011;26044;50.864;20.658;2024-03-23T07:17:24;51.53;;;24.38;;
40339;SDS011;26044;50.864;20.658;2024-03-23T07:19:50;52.63;;;23.95;;
40339;SDS011;26044;50.864;20.658;2024-03-23T07:22:19;46.53;;;20.83;;
40339;SDS011;26044;50.864;20.658;2024-03-23T07:24:45;49.22;;;20.92;;
40339;SDS011;26044;50.864;20.658;2024-03-23T07:27:12;47.45;;;21.90;;
40339;SDS011;26044;50.864;20.658;2024-03-23T07:29:43;44.47;;;22.52;;
40339;SDS011;26044;50.864;20.658;2024-03-23T07:32:11;46.40;;;22.30;;
40339;SDS011;26044;50.864;20.658;2024-03-23T07:34:37;47.30;;;20.38;;
40339;SDS011;26044;50.864;20.658;2024-03-23T07:37:03;43.10;;;18.88;;
40339;SDS011;26044;50.864;20.658;2024-03-23T07:39:29;40.63;;;16.75;;
40339;SDS011;26044;50.864;20.658;2024-03-23T07:41:58;37.13;;;17.75;;
40339;SDS011;26044;50.864;20.658;2024-03-23T07:44:24;39.88;;;17.85;;
40339;SDS011;26044;50.864;20.658;2024-03-23T07:46:52;42.03;;;19.33;;
40339;SDS011;26044;50.864;20.658;2024-03-23T07:49:18;43.72;;;19.90;;
40339;SDS011;26044;50.864;20.658;2024-03-23T07:51:44;39.83;;;19.08;;
40339;SDS011;26044;50.864;20.658;2024-03-23T07:54:10;39.65;;;19.10;;
40339;SDS011;26044;50.864;20.658;2024-03-23T07:56:46;42.70;;;19.13;;
40339;SDS011;26044;50.864;20.658;2024-03-23T07:59:12;42.17;;;18.92;;
40339;SDS011;26044;50.864;20.658;2024-03-23T08:01:38;42.25;;;18.63;;
40339;SDS011;26044;50.864;20.658;2024-03-23T08:04:05;42.65;;;18.45;;
40339;SDS011;26044;50.864;20.658;2024-03-23T08:06:40;40.88;;;18.63;;
40339;SDS011;26044;50.864;20.658;2024-03-23T08:09:07;38.72;;;18.25;;
40339;SDS011;26044;50.864;20.658;2024-03-23T08:11:33;41.42;;;17.42;;
40339;SDS011;26044;50.864;20.658;2024-03-23T08:14:00;40.97;;;19.13;;
40339;SDS011;26044;50.864;20.658;2024-03-23T08:16:29;43.28;;;19.23;;
40339;SDS011;26044;50.864;20.658;2024-03-23T08:18:56;40.58;;;18.98;;
40339;SDS011;26044;50.864;20.658;2024-03-23T08:21:22;41.72;;;19.70;;
40339;SDS011;26044;50.864;20.658;2024-03-23T08:23:48;41.55;;;19.35;;
40339;SDS011;26044;50.864;20.658;2024-03-23T08:26:15;45.88;;;20.77;;
40339;SDS011;26044;50.864;20.658;2024-03-23T08:28:43;44.67;;;19.77;;
40339;SDS011;26044;50.864;20.658;2024-03-23T08:31:10;44.38;;;19.75;;
40339;SDS011;26044;50.864;20.658;2024-03-23T08:33:37;40.83;;;19.00;;
40339;SDS011;26044;50.864;20.658;2024-03-23T08:36:04;42.70;;;20.25;;
40339;SDS011;26044;50.864;20.658;2024-03-23T08:38:31;43.72;;;19.67;;
40339;SDS011;26044;50.864;20.658;2024-03-23T08:46:02;39.47;;;19.50;;
40339;SDS011;26044;50.864;20.658;2024-03-23T08:48:29;43.95;;;20.75;;
40339;SDS011;26044;50.864;20.658;2024-03-23T08:51:08;48.22;;;22.70;;
40339;SDS011;26044;50.864;20.658;2024-03-23T08:53:34;42.75;;;20.17;;
40339;SDS011;26044;50.864;20.658;2024-03-23T08:56:02;40.75;;;20.63;;
40339;SDS011;26044;50.864;20.658;2024-03-23T08:58:28;42.42;;;21.65;;
40339;SDS011;26044;50.864;20.658;2024-03-23T09:00:55;41.88;;;19.63;;
40339;SDS011;26044;50.864;20.658;2024-03-23T09:03:25;40.53;;;18.63;;
40339;SDS011;26044;50.864;20.658;2024-03-23T09:05:51;37.30;;;18.40;;
40339;SDS011;26044;50.864;20.658;2024-03-23T09:08:18;36.53;;;19.67;;
40339;SDS011;26044;50.864;20.658;2024-03-23T09:10:44;36.33;;;18.15;;
40339;SDS011;26044;50.864;20.658;2024-03-23T09:13:10;38.85;;;18.95;;
40339;SDS011;26044;50.864;20.658;2024-03-23T09:15:44;34.38;;;16.73;;
40339;SDS011;26044;50.864;20.658;2024-03-23T09:18:12;36.40;;;17.23;;
40339;SDS011;26044;50.864;20.658;2024-03-23T09:20:38;35.55;;;17.40;;
40339;SDS011;26044;50.864;20.658;2024-03-23T09:23:05;35.47;;;17.70;;
40339;SDS011;26044;50.864;20.658;2024-03-23T09:25:31;35.85;;;17.27;;
40339;SDS011;26044;50.864;20.658;2024-03-23T09:27:58;33.88;;;16.40;;
40339;SDS011;26044;50.864;20.658;2024-03-23T09:30:24;33.60;;;15.73;;
40339;SDS011;26044;50.864;20.658;2024-03-23T09:32:50;32.38;;;16.58;;
40339;SDS011;26044;50.864;20.658;2024-03-23T09:35:16;33.75;;;17.15;;
40339;SDS011;26044;50.864;20.658;2024-03-23T09:37:43;35.53;;;17.92;;
40339;SDS011;26044;50.864;20.658;2024-03-23T09:40:11;34.03;;;16.42;;
40339;SDS011;26044;50.864;20.658;2024-03-23T09:42:38;33.92;;;16.23;;
40339;SDS011;26044;50.864;20.658;2024-03-23T09:45:05;32.00;;;15.50;;
40339;SDS011;26044;50.864;20.658;2024-03-23T09:47:32;31.13;;;16.02;;
40339;SDS011;26044;50.864;20.658;2024-03-23T09:49:59;32.45;;;15.85;;
40339;SDS011;26044;50.864;20.658;2024-03-23T09:52:25;27.80;;;13.75;;
40339;SDS011;26044;50.864;20.658;2024-03-23T09:54:52;30.75;;;15.65;;
40339;SDS011;26044;50.864;20.658;2024-03-23T09:57:19;33.00;;;14.68;;
40339;SDS011;26044;50.864;20.658;2024-03-23T09:59:46;31.70;;;15.18;;
40339;SDS011;26044;50.864;20.658;2024-03-23T10:02:12;30.35;;;15.05;;
40339;SDS011;26044;50.864;20.658;2024-03-23T10:04:42;35.72;;;17.40;;
40339;SDS011;26044;50.864;20.658;2024-03-23T10:07:15;32.40;;;15.65;;
40339;SDS011;26044;50.864;20.658;2024-03-23T10:09:44;32.38;;;15.30;;
40339;SDS011;26044;50.864;20.658;2024-03-23T10:12:15;28.05;;;13.73;;
40339;SDS011;26044;50.864;20.658;2024-03-23T10:14:41;28.70;;;13.55;;
40339;SDS011;26044;50.864;20.658;2024-03-23T10:17:23;29.42;;;15.00;;
40339;SDS011;26044;50.864;20.658;2024-03-23T10:19:50;28.25;;;13.40;;
40339;SDS011;26044;50.864;20.658;2024-03-23T10:22:21;29.10;;;13.85;;
40339;SDS011;26044;50.864;20.658;2024-03-23T10:24:47;28.33;;;13.52;;
40339;SDS011;26044;50.864;20.658;2024-03-23T10:27:20;27.38;;;13.35;;
40339;SDS011;26044;50.864;20.658;2024-03-23T10:32:16;30.17;;;14.32;;
40339;SDS011;26044;50.864;20.658;2024-03-23T10:34:46;26.35;;;12.32;;
40339;SDS011;26044;50.864;20.658;2024-03-23T10:37:13;28.42;;;12.32;;
40339;SDS011;26044;50.864;20.658;2024-03-23T10:39:39;28.50;;;11.98;;
40339;SDS011;26044;50.864;20.658;2024-03-23T10:42:06;26.70;;;12.30;;
40339;SDS011;26044;50.864;20.658;2024-03-23T10:44:33;24.08;;;11.23;;
40339;SDS011;26044;50.864;20.658;2024-03-23T10:47:00;24.63;;;11.00;;
40339;SDS011;26044;50.864;20.658;2024-03-23T10:49:27;24.13;;;10.50;;
40339;SDS011;26044;50.864;20.658;2024-03-23T10:51:55;26.27;;;11.15;;
40339;SDS011;26044;50.864;20.658;2024-03-23T10:54:22;25.13;;;10.88;;
40339;SDS011;26044;50.864;20.658;2024-03-23T10:56:50;25.73;;;11.23;;
40339;SDS011;26044;50.864;20.658;2024-03-23T10:59:17;25.15;;;10.38;;
40339;SDS011;26044;50.864;20.658;2024-03-23T11:01:56;22.75;;;10.77;;
40339;SDS011;26044;50.864;20.658;2024-03-23T11:04:32;25.48;;;11.50;;
40339;SDS011;26044;50.864;20.658;2024-03-23T11:06:59;23.75;;;10.48;;
40339;SDS011;26044;50.864;20.658;2024-03-23T11:14:45;22.77;;;9.82;;
40339;SDS011;26044;50.864;20.658;2024-03-23T11:17:14;21.33;;;9.65;;
40339;SDS011;26044;50.864;20.658;2024-03-23T11:19:43;22.30;;;9.93;;
40339;SDS011;26044;50.864;20.658;2024-03-23T11:22:10;21.23;;;9.38;;
40339;SDS011;26044;50.864;20.658;2024-03-23T11:24:36;22.38;;;9.85;;
40339;SDS011;26044;50.864;20.658;2024-03-23T11:27:15;23.13;;;9.93;;
40339;SDS011;26044;50.864;20.658;2024-03-23T11:29:41;21.83;;;10.05;;
40339;SDS011;26044;50.864;20.658;2024-03-23T11:32:08;20.23;;;9.20;;
40339;SDS011;26044;50.864;20.658;2024-03-23T11:34:38;23.83;;;9.38;;
40339;SDS011;26044;50.864;20.658;2024-03-23T11:37:04;26.13;;;10.05;;
40339;SDS011;26044;50.864;20.658;2024-03-23T11:39:31;20.50;;;9.18;;
40339;SDS011;26044;50.864;20.658;2024-03-23T11:41:57;24.13;;;9.80;;
40339;SDS011;26044;50.864;20.658;2024-03-23T11:44:27;23.77;;;10.90;;
40339;SDS011;26044;50.864;20.658;2024-03-23T11:46:53;21.92;;;9.52;;
40339;SDS011;26044;50.864;20.658;2024-03-23T11:49:20;21.30;;;9.32;;
40339;SDS011;26044;50.864;20.658;2024-03-23T11:51:50;22.83;;;9.40;;
40339;SDS011;26044;50.864;20.658;2024-03-23T11:54:19;22.58;;;9.68;;
40339;SDS011;26044;50.864;20.658;2024-03-23T11:56:55;21.15;;;8.98;;
40339;SDS011;26044;50.864;20.658;2024-03-23T12:02:05;23.77;;;9.65;;
40339;SDS011;26044;50.864;20.658;2024-03-23T12:04:32;20.88;;;9.63;;
40339;SDS011;26044;50.864;20.658;2024-03-23T12:07:17;23.27;;;9.60;;
40339;SDS011;26044;50.864;20.658;2024-03-23T12:09:47;23.48;;;10.25;;
40339;SDS011;26044;50.864;20.658;2024-03-23T12:12:28;21.73;;;9.30;;
40339;SDS011;26044;50.864;20.658;2024-03-23T12:15:02;23.60;;;9.40;;
40339;SDS011;26044;50.864;20.658;2024-03-23T12:17:28;21.95;;;9.10;;
40339;SDS011;26044;50.864;20.658;2024-03-23T12:19:55;23.85;;;8.88;;
40339;SDS011;26044;50.864;20.658;2024-03-23T12:22:21;22.15;;;8.85;;
40339;SDS011;26044;50.864;20.658;2024-03-23T12:24:47;22.55;;;9.57;;
40339;SDS011;26044;50.864;20.658;2024-03-23T12:27:14;19.75;;;7.95;;
40339;SDS011;26044;50.864;20.658;2024-03-23T12:29:40;20.77;;;8.45;;
40339;SDS011;26044;50.864;20.658;2024-03-23T12:32:08;23.98;;;9.15;;
40339;SDS011;26044;50.864;20.658;2024-03-23T12:34:34;21.60;;;8.80;;
40339;SDS011;26044;50.864;20.658;2024-03-23T12:37:01;20.95;;;9.02;;
40339;SDS011;26044;50.864;20.658;2024-03-23T12:39:27;22.08;;;8.32;;
40339;SDS011;26044;50.864;20.658;2024-03-23T12:41:53;22.70;;;9.43;;
40339;SDS011;26044;50.864;20.658;2024-03-23T12:44:19;20.13;;;8.52;;
40339;SDS011;26044;50.864;20.658;2024-03-23T12:46:46;20.40;;;8.98;;
40339;SDS011;26044;50.864;20.658;2024-03-23T12:49:12;26.42;;;9.00;;
40339;SDS011;26044;50.864;20.658;2024-03-23T12:51:39;18.90;;;8.55;;
40339;SDS011;26044;50.864;20.658;2024-03-23T12:54:05;20.83;;;8.50;;
40339;SDS011;26044;50.864;20.658;2024-03-23T12:56:31;21.73;;;8.35;;
40339;SDS011;26044;50.864;20.658;2024-03-23T12:58:57;20.38;;;9.32;;
40339;SDS011;26044;50.864;20.658;2024-03-23T13:01:24;18.25;;;7.78;;
40339;SDS011;26044;50.864;20.658;2024-03-23T13:03:51;17.83;;;7.45;;
40339;SDS011;26044;50.864;20.658;2024-03-23T13:06:17;18.90;;;7.93;;
40339;SDS011;26044;50.864;20.658;2024-03-23T13:08:47;19.20;;;8.25;;
40339;SDS011;26044;50.864;20.658;2024-03-23T13:11:15;19.52;;;8.05;;
40339;SDS011;26044;50.864;20.658;2024-03-23T13:13:43;19.35;;;7.43;;
40339;SDS011;26044;50.864;20.658;2024-03-23T13:16:10;18.15;;;7.18;;
40339;SDS011;26044;50.864;20.658;2024-03-23T13:18:36;19.63;;;7.85;;
40339;SDS011;26044;50.864;20.658;2024-03-23T13:21:03;18.55;;;7.30;;
40339;SDS011;26044;50.864;20.658;2024-03-23T13:23:30;17.90;;;6.78;;
40339;SDS011;26044;50.864;20.658;2024-03-23T13:25:57;17.10;;;6.85;;
40339;SDS011;26044;50.864;20.658;2024-03-23T13:28:24;18.60;;;7.47;;
40339;SDS011;26044;50.864;20.658;2024-03-23T13:30:53;20.15;;;8.00;;
40339;SDS011;26044;50.864;20.658;2024-03-23T13:33:20;15.15;;;6.05;;
40339;SDS011;26044;50.864;20.658;2024-03-23T13:35:50;17.38;;;6.88;;
40339;SDS011;26044;50.864;20.658;2024-03-23T13:38:16;19.13;;;7.18;;
40339;SDS011;26044;50.864;20.658;2024-03-23T13:40:52;16.25;;;7.20;;
40339;SDS011;26044;50.864;20.658;2024-03-23T13:43:19;16.80;;;6.57;;
40339;SDS011;26044;50.864;20.658;2024-03-23T13:45:46;14.70;;;6.25;;
40339;SDS011;26044;50.864;20.658;2024-03-23T13:48:13;17.92;;;6.90;;
40339;SDS011;26044;50.864;20.658;2024-03-23T13:50:40;16.85;;;6.68;;
40339;SDS011;26044;50.864;20.658;2024-03-23T13:53:07;18.60;;;7.30;;
40339;SDS011;26044;50.864;20.658;2024-03-23T13:55:34;16.55;;;6.80;;
40339;SDS011;26044;50.864;20.658;2024-03-23T13:58:01;18.77;;;6.35;;
40339;SDS011;26044;50.864;20.658;2024-03-23T14:00:27;17.15;;;6.45;;
40339;SDS011;26044;50.864;20.658;2024-03-23T14:02:53;17.55;;;7.07;;
40339;SDS011;26044;50.864;20.658;2024-03-23T14:05:19;16.25;;;6.20;;
40339;SDS011;26044;50.864;20.658;2024-03-23T14:07:46;16.58;;;6.65;;
40339;SDS011;26044;50.864;20.658;2024-03-23T14:10:12;15.75;;;6.32;;
40339;SDS011;26044;50.864;20.658;2024-03-23T14:12:39;16.38;;;6.93;;
40339;SDS011;26044;50.864;20.658;2024-03-23T14:15:06;16.88;;;6.78;;
40339;SDS011;26044;50.864;20.658;2024-03-23T14:17:33;16.08;;;6.68;;
40339;SDS011;26044;50.864;20.658;2024-03-23T14:20:00;18.85;;;7.88;;
40339;SDS011;26044;50.864;20.658;2024-03-23T14:22:27;19.40;;;8.05;;
40339;SDS011;26044;50.864;20.658;2024-03-23T14:24:53;20.17;;;8.32;;
40339;SDS011;26044;50.864;20.658;2024-03-23T14:27:19;18.10;;;7.25;;
40339;SDS011;26044;50.864;20.658;2024-03-23T14:29:49;21.50;;;8.25;;
40339;SDS011;26044;50.864;20.658;2024-03-23T14:32:16;22.30;;;8.30;;
40339;SDS011;26044;50.864;20.658;2024-03-23T14:34:42;21.02;;;8.07;;
40339;SDS011;26044;50.864;20.658;2024-03-23T14:37:08;20.13;;;7.80;;
40339;SDS011;26044;50.864;20.658;2024-03-23T14:39:34;21.83;;;7.95;;
40339;SDS011;26044;50.864;20.658;2024-03-23T14:42:01;18.85;;;7.57;;
40339;SDS011;26044;50.864;20.658;2024-03-23T14:44:28;19.60;;;7.90;;
40339;SDS011;26044;50.864;20.658;2024-03-23T14:46:56;20.27;;;8.95;;
40339;SDS011;26044;50.864;20.658;2024-03-23T14:49:22;21.90;;;7.93;;
40339;SDS011;26044;50.864;20.658;2024-03-23T14:51:49;20.42;;;8.75;;
40339;SDS011;26044;50.864;20.658;2024-03-23T14:54:15;20.13;;;9.07;;
40339;SDS011;26044;50.864;20.658;2024-03-23T14:56:42;20.70;;;8.57;;
40339;SDS011;26044;50.864;20.658;2024-03-23T14:59:10;21.40;;;8.52;;
40339;SDS011;26044;50.864;20.658;2024-03-23T15:04:25;21.73;;;9.50;;
40339;SDS011;26044;50.864;20.658;2024-03-23T15:06:51;21.55;;;9.35;;
40339;SDS011;26044;50.864;20.658;2024-03-23T15:09:17;24.75;;;9.68;;
40339;SDS011;26044;50.864;20.658;2024-03-23T15:11:44;26.95;;;10.38;;
40339;SDS011;26044;50.864;20.658;2024-03-23T15:14:11;16.98;;;5.80;;
40339;SDS011;26044;50.864;20.658;2024-03-23T15:16:38;13.23;;;4.40;;
40339;SDS011;26044;50.864;20.658;2024-03-23T15:19:11;13.13;;;4.35;;
40339;SDS011;26044;50.864;20.658;2024-03-23T15:21:40;12.73;;;4.82;;
40339;SDS011;26044;50.864;20.658;2024-03-23T15:24:09;12.07;;;4.72;;
40339;SDS011;26044;50.864;20.658;2024-03-23T15:26:37;14.05;;;4.93;;
40339;SDS011;26044;50.864;20.658;2024-03-23T15:29:03;14.15;;;5.00;;